sensor_id;sensor_type;location;lat;lon;timestamp;temperature;humidity
6841;DHT22;3458;53.678;14.080;2022-10-31T00:00:07;12.50;99.90
6841;DHT22;3458;53.678;14.080;2022-10-31T00:02:33;12.50;99.90
6841;DHT22;3458;53.678;14.080;2022-10-31T00:04:59;12.50;99.90
6841;DHT22;3458;53.678;14.080;2022-10-31T00:07:24;12.50;99.90
6841;DHT22;3458;53.678;14.080;2022-10-31T00:09:50;12.50;99.90
6841;DHT22;3458;53.678;14.080;2022-10-31T00:12:15;12.50;99.90
6841;DHT22;3458;53.678;14.080;2022-10-31T00:14:41;12.40;99.90
6841;DHT22;3458;53.678;14.080;2022-10-31T00:17:06;12.40;99.90
6841;DHT22;3458;53.678;14.080;2022-10-31T00:19:32;12.40;99.90
6841;DHT22;3458;53.678;14.080;2022-10-31T00:21:57;12.30;99.90
6841;DHT22;3458;53.678;14.080;2022-10-31T00:24:23;12.30;99.90
6841;DHT22;3458;53.678;14.080;2022-10-31T00:26:48;12.30;99.90
6841;DHT22;3458;53.678;14.080;2022-10-31T00:29:14;12.30;99.90
6841;DHT22;3458;53.678;14.080;2022-10-31T00:31:39;12.30;99.90
6841;DHT22;3458;53.678;14.080;2022-10-31T00:34:05;12.20;99.90
6841;DHT22;3458;53.678;14.080;2022-10-31T00:36:30;12.20;99.90
6841;DHT22;3458;53.678;14.080;2022-10-31T00:38:58;12.20;99.90
6841;DHT22;3458;53.678;14.080;2022-10-31T00:41:24;12.20;99.90
6841;DHT22;3458;53.678;14.080;2022-10-31T00:43:49;12.20;99.90
6841;DHT22;3458;53.678;14.080;2022-10-31T00:46:15;12.20;99.90
6841;DHT22;3458;53.678;14.080;2022-10-31T00:48:41;12.20;99.90
6841;DHT22;3458;53.678;14.080;2022-10-31T00:51:07;12.10;99.90
6841;DHT22;3458;53.678;14.080;2022-10-31T00:53:33;12.10;99.90
6841;DHT22;3458;53.678;14.080;2022-10-31T00:55:59;12.10;99.90
6841;DHT22;3458;53.678;14.080;2022-10-31T00:58:24;12.10;99.90
6841;DHT22;3458;53.678;14.080;2022-10-31T01:00:50;12.10;99.90
6841;DHT22;3458;53.678;14.080;2022-10-31T01:03:30;12.10;99.90
6841;DHT22;3458;53.678;14.080;2022-10-31T01:06:01;12.00;99.90
6841;DHT22;3458;53.678;14.080;2022-10-31T01:08:28;12.00;99.90
6841;DHT22;3458;53.678;14.080;2022-10-31T01:13:34;12.00;99.90
6841;DHT22;3458;53.678;14.080;2022-10-31T01:16:01;11.90;99.90
6841;DHT22;3458;53.678;14.080;2022-10-31T01:18:27;11.90;99.90
6841;DHT22;3458;53.678;14.080;2022-10-31T01:20:59;12.00;99.90
6841;DHT22;3458;53.678;14.080;2022-10-31T01:23:26;12.00;99.90
6841;DHT22;3458;53.678;14.080;2022-10-31T01:25:59;11.90;99.90
6841;DHT22;3458;53.678;14.080;2022-10-31T01:28:25;11.90;99.90
6841;DHT22;3458;53.678;14.080;2022-10-31T01:30:50;11.90;99.90
6841;DHT22;3458;53.678;14.080;2022-10-31T01:33:16;11.90;99.90
6841;DHT22;3458;53.678;14.080;2022-10-31T01:35:41;11.80;99.90
6841;DHT22;3458;53.678;14.080;2022-10-31T01:38:07;11.80;99.90
6841;DHT22;3458;53.678;14.080;2022-10-31T01:40:32;11.80;99.90
6841;DHT22;3458;53.678;14.080;2022-10-31T01:42:58;11.80;99.90
6841;DHT22;3458;53.678;14.080;2022-10-31T01:45:23;11.80;99.90
6841;DHT22;3458;53.678;14.080;2022-10-31T01:47:49;11.80;99.90
6841;DHT22;3458;53.678;14.080;2022-10-31T01:50:35;11.70;99.90
6841;DHT22;3458;53.678;14.080;2022-10-31T01:53:05;11.70;99.90
6841;DHT22;3458;53.678;14.080;2022-10-31T01:55:35;11.70;99.90
6841;DHT22;3458;53.678;14.080;2022-10-31T01:58:13;11.70;99.90
6841;DHT22;3458;53.678;14.080;2022-10-31T02:00:41;11.70;99.90
6841;DHT22;3458;53.678;14.080;2022-10-31T02:03:08;11.60;99.90
6841;DHT22;3458;53.678;14.080;2022-10-31T02:05:34;11.60;99.90
6841;DHT22;3458;53.678;14.080;2022-10-31T02:08:23;11.60;99.90
6841;DHT22;3458;53.678;14.080;2022-10-31T02:10:51;11.60;99.90
6841;DHT22;3458;53.678;14.080;2022-10-31T02:13:17;11.60;99.90
6841;DHT22;3458;53.678;14.080;2022-10-31T02:15:45;11.60;99.90
6841;DHT22;3458;53.678;14.080;2022-10-31T02:18:12;11.60;99.90
6841;DHT22;3458;53.678;14.080;2022-10-31T02:20:45;11.50;99.90
6841;DHT22;3458;53.678;14.080;2022-10-31T02:26:37;11.50;99.90
6841;DHT22;3458;53.678;14.080;2022-10-31T02:29:33;11.50;99.90
6841;DHT22;3458;53.678;14.080;2022-10-31T02:35:15;11.50;99.90
6841;DHT22;3458;53.678;14.080;2022-10-31T02:37:47;11.40;99.90
6841;DHT22;3458;53.678;14.080;2022-10-31T02:40:21;11.40;99.90
6841;DHT22;3458;53.678;14.080;2022-10-31T02:43:06;11.40;99.90
6841;DHT22;3458;53.678;14.080;2022-10-31T02:45:56;11.40;99.90
6841;DHT22;3458;53.678;14.080;2022-10-31T02:48:30;11.40;99.90
6841;DHT22;3458;53.678;14.080;2022-10-31T02:51:00;11.40;99.90
6841;DHT22;3458;53.678;14.080;2022-10-31T02:53:26;11.40;99.90
6841;DHT22;3458;53.678;14.080;2022-10-31T02:56:03;11.30;99.90
6841;DHT22;3458;53.678;14.080;2022-10-31T02:58:33;11.30;99.90
6841;DHT22;3458;53.678;14.080;2022-10-31T03:01:16;11.30;99.90
6841;DHT22;3458;53.678;14.080;2022-10-31T03:06:23;11.30;99.90
6841;DHT22;3458;53.678;14.080;2022-10-31T03:11:46;11.20;99.90
6841;DHT22;3458;53.678;14.080;2022-10-31T03:14:21;11.20;99.90
6841;DHT22;3458;53.678;14.080;2022-10-31T03:16:50;11.20;99.90
6841;DHT22;3458;53.678;14.080;2022-10-31T03:19:33;11.20;99.90
6841;DHT22;3458;53.678;14.080;2022-10-31T03:24:37;11.20;99.90
6841;DHT22;3458;53.678;14.080;2022-10-31T03:27:06;11.10;99.90
6841;DHT22;3458;53.678;14.080;2022-10-31T03:29:35;11.20;99.90
6841;DHT22;3458;53.678;14.080;2022-10-31T03:32:06;11.10;99.90
6841;DHT22;3458;53.678;14.080;2022-10-31T03:34:35;11.10;99.90
6841;DHT22;3458;53.678;14.080;2022-10-31T03:37:05;11.10;99.90
6841;DHT22;3458;53.678;14.080;2022-10-31T03:39:31;11.10;99.90
6841;DHT22;3458;53.678;14.080;2022-10-31T03:42:05;11.10;99.90
6841;DHT22;3458;53.678;14.080;2022-10-31T03:44:32;11.00;99.90
6841;DHT22;3458;53.678;14.080;2022-10-31T03:46:59;11.00;99.90
6841;DHT22;3458;53.678;14.080;2022-10-31T03:49:25;11.00;99.90
6841;DHT22;3458;53.678;14.080;2022-10-31T03:52:06;11.00;99.90
6841;DHT22;3458;53.678;14.080;2022-10-31T03:54:43;11.00;99.90
6841;DHT22;3458;53.678;14.080;2022-10-31T03:57:44;10.90;99.90
6841;DHT22;3458;53.678;14.080;2022-10-31T04:00:12;10.90;99.90
6841;DHT22;3458;53.678;14.080;2022-10-31T04:02:42;10.90;99.90
6841;DHT22;3458;53.678;14.080;2022-10-31T04:05:09;10.90;99.90
6841;DHT22;3458;53.678;14.080;2022-10-31T04:07:41;10.80;99.90
6841;DHT22;3458;53.678;14.080;2022-10-31T04:10:11;10.80;99.90
6841;DHT22;3458;53.678;14.080;2022-10-31T04:12:39;10.80;99.90
6841;DHT22;3458;53.678;14.080;2022-10-31T04:15:06;10.80;99.90
6841;DHT22;3458;53.678;14.080;2022-10-31T04:17:35;10.80;99.90
6841;DHT22;3458;53.678;14.080;2022-10-31T04:20:01;10.70;99.90
6841;DHT22;3458;53.678;14.080;2022-10-31T04:22:27;10.70;99.90
6841;DHT22;3458;53.678;14.080;2022-10-31T04:24:53;10.70;99.90
6841;DHT22;3458;53.678;14.080;2022-10-31T04:27:18;10.70;99.90
6841;DHT22;3458;53.678;14.080;2022-10-31T04:29:44;10.70;99.90
6841;DHT22;3458;53.678;14.080;2022-10-31T04:32:09;10.70;99.90
6841;DHT22;3458;53.678;14.080;2022-10-31T04:34:35;10.70;99.90
6841;DHT22;3458;53.678;14.080;2022-10-31T04:37:00;10.70;99.90
6841;DHT22;3458;53.678;14.080;2022-10-31T04:39:26;10.70;99.90
6841;DHT22;3458;53.678;14.080;2022-10-31T04:41:51;10.60;99.90
6841;DHT22;3458;53.678;14.080;2022-10-31T04:44:17;10.60;99.90
6841;DHT22;3458;53.678;14.080;2022-10-31T04:46:43;10.60;99.90
6841;DHT22;3458;53.678;14.080;2022-10-31T04:49:08;10.60;99.90
6841;DHT22;3458;53.678;14.080;2022-10-31T04:51:34;10.60;99.90
6841;DHT22;3458;53.678;14.080;2022-10-31T04:53:59;10.60;99.90
6841;DHT22;3458;53.678;14.080;2022-10-31T04:56:25;10.60;99.90
6841;DHT22;3458;53.678;14.080;2022-10-31T04:58:51;10.60;99.90
6841;DHT22;3458;53.678;14.080;2022-10-31T05:01:16;10.50;99.90
6841;DHT22;3458;53.678;14.080;2022-10-31T05:03:42;10.50;99.90
6841;DHT22;3458;53.678;14.080;2022-10-31T05:06:08;10.50;99.90
6841;DHT22;3458;53.678;14.080;2022-10-31T05:08:34;10.50;99.90
6841;DHT22;3458;53.678;14.080;2022-10-31T05:11:03;10.50;99.90
6841;DHT22;3458;53.678;14.080;2022-10-31T05:13:29;10.50;99.90
6841;DHT22;3458;53.678;14.080;2022-10-31T05:15:55;10.40;99.90
6841;DHT22;3458;53.678;14.080;2022-10-31T05:18:21;10.40;99.90
6841;DHT22;3458;53.678;14.080;2022-10-31T05:20:46;10.40;99.90
6841;DHT22;3458;53.678;14.080;2022-10-31T05:23:12;10.40;99.90
6841;DHT22;3458;53.678;14.080;2022-10-31T05:25:40;10.40;99.90
6841;DHT22;3458;53.678;14.080;2022-10-31T05:28:06;10.40;99.90
6841;DHT22;3458;53.678;14.080;2022-10-31T05:30:32;10.40;99.90
6841;DHT22;3458;53.678;14.080;2022-10-31T05:32:58;10.30;99.90
6841;DHT22;3458;53.678;14.080;2022-10-31T05:35:29;10.30;99.90
6841;DHT22;3458;53.678;14.080;2022-10-31T05:37:55;10.30;99.90
6841;DHT22;3458;53.678;14.080;2022-10-31T05:40:21;10.30;99.90
6841;DHT22;3458;53.678;14.080;2022-10-31T05:42:50;10.30;99.90
6841;DHT22;3458;53.678;14.080;2022-10-31T05:45:17;10.30;99.90
6841;DHT22;3458;53.678;14.080;2022-10-31T05:47:49;10.30;99.90
6841;DHT22;3458;53.678;14.080;2022-10-31T05:50:14;10.30;99.90
6841;DHT22;3458;53.678;14.080;2022-10-31T05:52:40;10.30;99.90
6841;DHT22;3458;53.678;14.080;2022-10-31T05:55:06;10.30;99.90
6841;DHT22;3458;53.678;14.080;2022-10-31T05:57:32;10.20;99.90
6841;DHT22;3458;53.678;14.080;2022-10-31T05:59:58;10.20;99.90
6841;DHT22;3458;53.678;14.080;2022-10-31T06:02:23;10.20;99.90
6841;DHT22;3458;53.678;14.080;2022-10-31T06:04:49;10.20;99.90
6841;DHT22;3458;53.678;14.080;2022-10-31T06:07:14;10.20;99.90
6841;DHT22;3458;53.678;14.080;2022-10-31T06:09:40;10.30;99.90
6841;DHT22;3458;53.678;14.080;2022-10-31T06:12:06;10.30;99.90
6841;DHT22;3458;53.678;14.080;2022-10-31T06:14:31;10.30;99.90
6841;DHT22;3458;53.678;14.080;2022-10-31T06:16:57;10.30;99.90
6841;DHT22;3458;53.678;14.080;2022-10-31T06:19:22;10.30;99.90
6841;DHT22;3458;53.678;14.080;2022-10-31T06:21:48;10.30;99.90
6841;DHT22;3458;53.678;14.080;2022-10-31T06:24:13;10.30;99.90
6841;DHT22;3458;53.678;14.080;2022-10-31T06:26:40;10.30;99.90
6841;DHT22;3458;53.678;14.080;2022-10-31T06:29:06;10.30;99.90
6841;DHT22;3458;53.678;14.080;2022-10-31T06:31:31;10.40;99.90
6841;DHT22;3458;53.678;14.080;2022-10-31T06:33:57;10.40;99.90
6841;DHT22;3458;53.678;14.080;2022-10-31T06:36:23;10.50;99.90
6841;DHT22;3458;53.678;14.080;2022-10-31T06:38:48;10.50;99.90
6841;DHT22;3458;53.678;14.080;2022-10-31T06:41:14;10.50;99.90
6841;DHT22;3458;53.678;14.080;2022-10-31T06:43:39;10.50;99.90
6841;DHT22;3458;53.678;14.080;2022-10-31T06:46:05;10.50;99.90
6841;DHT22;3458;53.678;14.080;2022-10-31T06:48:31;10.50;99.90
6841;DHT22;3458;53.678;14.080;2022-10-31T06:51:01;10.50;99.90
6841;DHT22;3458;53.678;14.080;2022-10-31T06:53:27;10.50;99.90
6841;DHT22;3458;53.678;14.080;2022-10-31T06:55:55;10.60;99.90
6841;DHT22;3458;53.678;14.080;2022-10-31T06:58:21;10.60;99.90
6841;DHT22;3458;53.678;14.080;2022-10-31T07:00:46;10.60;99.90
6841;DHT22;3458;53.678;14.080;2022-10-31T07:03:13;10.60;99.90
6841;DHT22;3458;53.678;14.080;2022-10-31T07:05:41;10.60;99.90
6841;DHT22;3458;53.678;14.080;2022-10-31T07:08:08;10.60;99.90
6841;DHT22;3458;53.678;14.080;2022-10-31T07:10:35;10.60;99.90
6841;DHT22;3458;53.678;14.080;2022-10-31T07:13:03;10.60;99.90
6841;DHT22;3458;53.678;14.080;2022-10-31T07:15:33;10.70;99.90
6841;DHT22;3458;53.678;14.080;2022-10-31T07:18:00;10.70;99.90
6841;DHT22;3458;53.678;14.080;2022-10-31T07:20:29;10.70;99.90
6841;DHT22;3458;53.678;14.080;2022-10-31T07:22:55;10.70;99.90
6841;DHT22;3458;53.678;14.080;2022-10-31T07:25:22;10.70;99.90
6841;DHT22;3458;53.678;14.080;2022-10-31T07:27:47;10.70;99.90
6841;DHT22;3458;53.678;14.080;2022-10-31T07:30:13;10.70;99.90
6841;DHT22;3458;53.678;14.080;2022-10-31T07:32:47;10.70;99.90
6841;DHT22;3458;53.678;14.080;2022-10-31T07:35:19;10.70;99.90
6841;DHT22;3458;53.678;14.080;2022-10-31T07:37:45;10.70;99.90
6841;DHT22;3458;53.678;14.080;2022-10-31T07:40:11;10.70;99.90
6841;DHT22;3458;53.678;14.080;2022-10-31T07:42:43;10.70;99.90
6841;DHT22;3458;53.678;14.080;2022-10-31T07:45:15;10.70;99.90
6841;DHT22;3458;53.678;14.080;2022-10-31T07:47:49;10.70;99.90
6841;DHT22;3458;53.678;14.080;2022-10-31T07:50:20;10.70;99.90
6841;DHT22;3458;53.678;14.080;2022-10-31T07:52:46;10.80;99.90
6841;DHT22;3458;53.678;14.080;2022-10-31T07:55:13;10.80;99.90
6841;DHT22;3458;53.678;14.080;2022-10-31T07:57:39;10.90;99.90
6841;DHT22;3458;53.678;14.080;2022-10-31T08:00:07;10.90;99.90
6841;DHT22;3458;53.678;14.080;2022-10-31T08:02:33;10.90;99.90
6841;DHT22;3458;53.678;14.080;2022-10-31T08:04:59;11.00;99.90
6841;DHT22;3458;53.678;14.080;2022-10-31T08:07:25;11.10;99.90
6841;DHT22;3458;53.678;14.080;2022-10-31T08:09:51;11.10;99.90
6841;DHT22;3458;53.678;14.080;2022-10-31T08:12:17;11.10;99.90
6841;DHT22;3458;53.678;14.080;2022-10-31T08:14:43;11.10;99.90
6841;DHT22;3458;53.678;14.080;2022-10-31T08:17:09;11.10;99.90
6841;DHT22;3458;53.678;14.080;2022-10-31T08:19:35;11.10;99.90
6841;DHT22;3458;53.678;14.080;2022-10-31T08:22:01;11.10;99.90
6841;DHT22;3458;53.678;14.080;2022-10-31T08:24:26;11.00;99.90
6841;DHT22;3458;53.678;14.080;2022-10-31T08:26:52;11.00;99.90
6841;DHT22;3458;53.678;14.080;2022-10-31T08:29:18;11.10;99.90
6841;DHT22;3458;53.678;14.080;2022-10-31T08:31:43;11.10;99.90
6841;DHT22;3458;53.678;14.080;2022-10-31T08:34:09;11.10;99.90
6841;DHT22;3458;53.678;14.080;2022-10-31T08:36:34;11.20;99.90
6841;DHT22;3458;53.678;14.080;2022-10-31T08:39:00;11.20;99.90
6841;DHT22;3458;53.678;14.080;2022-10-31T08:41:26;11.30;99.90
6841;DHT22;3458;53.678;14.080;2022-10-31T08:43:51;11.40;99.90
6841;DHT22;3458;53.678;14.080;2022-10-31T08:46:17;11.60;99.90
6841;DHT22;3458;53.678;14.080;2022-10-31T08:48:43;11.70;99.90
6841;DHT22;3458;53.678;14.080;2022-10-31T08:51:09;11.90;99.90
6841;DHT22;3458;53.678;14.080;2022-10-31T08:53:35;12.00;99.90
6841;DHT22;3458;53.678;14.080;2022-10-31T08:56:01;12.20;99.90
6841;DHT22;3458;53.678;14.080;2022-10-31T08:58:27;12.30;99.90
6841;DHT22;3458;53.678;14.080;2022-10-31T09:00:53;12.40;99.90
6841;DHT22;3458;53.678;14.080;2022-10-31T09:03:25;12.50;99.90
6841;DHT22;3458;53.678;14.080;2022-10-31T09:05:55;12.60;99.90
6841;DHT22;3458;53.678;14.080;2022-10-31T09:08:21;12.70;99.90
6841;DHT22;3458;53.678;14.080;2022-10-31T09:10:46;12.90;99.90
6841;DHT22;3458;53.678;14.080;2022-10-31T09:13:14;13.00;99.90
6841;DHT22;3458;53.678;14.080;2022-10-31T09:15:41;13.10;99.90
6841;DHT22;3458;53.678;14.080;2022-10-31T09:18:10;13.20;99.90
6841;DHT22;3458;53.678;14.080;2022-10-31T09:20:37;13.30;99.90
6841;DHT22;3458;53.678;14.080;2022-10-31T09:23:05;13.50;99.90
6841;DHT22;3458;53.678;14.080;2022-10-31T09:25:32;13.60;99.90
6841;DHT22;3458;53.678;14.080;2022-10-31T09:27:59;13.70;99.90
6841;DHT22;3458;53.678;14.080;2022-10-31T09:30:27;13.70;99.90
6841;DHT22;3458;53.678;14.080;2022-10-31T09:32:57;13.80;99.90
6841;DHT22;3458;53.678;14.080;2022-10-31T09:35:24;13.80;99.90
6841;DHT22;3458;53.678;14.080;2022-10-31T09:38:04;13.90;99.90
6841;DHT22;3458;53.678;14.080;2022-10-31T09:40:38;13.90;99.90
6841;DHT22;3458;53.678;14.080;2022-10-31T09:43:59;14.00;99.90
6841;DHT22;3458;53.678;14.080;2022-10-31T09:46:07;14.00;99.90
6841;DHT22;3458;53.678;14.080;2022-10-31T09:49:04;14.00;99.90
6841;DHT22;3458;53.678;14.080;2022-10-31T09:51:35;14.00;99.90
6841;DHT22;3458;53.678;14.080;2022-10-31T09:54:20;14.00;99.90
6841;DHT22;3458;53.678;14.080;2022-10-31T09:56:47;14.00;99.90
6841;DHT22;3458;53.678;14.080;2022-10-31T09:59:35;14.00;99.90
6841;DHT22;3458;53.678;14.080;2022-10-31T10:02:04;13.90;99.90
6841;DHT22;3458;53.678;14.080;2022-10-31T10:04:42;13.90;99.90
6841;DHT22;3458;53.678;14.080;2022-10-31T10:07:25;13.90;99.90
6841;DHT22;3458;53.678;14.080;2022-10-31T10:09:56;13.90;99.90
6841;DHT22;3458;53.678;14.080;2022-10-31T10:12:46;13.90;99.90
6841;DHT22;3458;53.678;14.080;2022-10-31T10:18:45;13.90;99.90
6841;DHT22;3458;53.678;14.080;2022-10-31T10:26:40;13.80;99.90
6841;DHT22;3458;53.678;14.080;2022-10-31T10:31:42;13.80;99.90
6841;DHT22;3458;53.678;14.080;2022-10-31T10:34:37;13.80;99.90
6841;DHT22;3458;53.678;14.080;2022-10-31T10:37:24;13.80;99.90
6841;DHT22;3458;53.678;14.080;2022-10-31T10:39:56;13.80;99.90
6841;DHT22;3458;53.678;14.080;2022-10-31T10:42:23;13.80;99.90
6841;DHT22;3458;53.678;14.080;2022-10-31T10:45:19;13.80;99.90
6841;DHT22;3458;53.678;14.080;2022-10-31T10:48:18;13.80;99.90
6841;DHT22;3458;53.678;14.080;2022-10-31T10:50:51;13.70;99.90
6841;DHT22;3458;53.678;14.080;2022-10-31T10:53:37;13.70;99.90
6841;DHT22;3458;53.678;14.080;2022-10-31T10:58:59;13.80;99.90
6841;DHT22;3458;53.678;14.080;2022-10-31T11:01:25;13.80;99.90
6841;DHT22;3458;53.678;14.080;2022-10-31T11:03:51;13.80;99.90
6841;DHT22;3458;53.678;14.080;2022-10-31T11:06:18;13.80;99.90
6841;DHT22;3458;53.678;14.080;2022-10-31T11:08:48;13.80;99.90
6841;DHT22;3458;53.678;14.080;2022-10-31T11:11:23;13.80;99.90
6841;DHT22;3458;53.678;14.080;2022-10-31T11:13:55;13.80;99.90
6841;DHT22;3458;53.678;14.080;2022-10-31T11:18:50;13.80;99.90
6841;DHT22;3458;53.678;14.080;2022-10-31T11:21:28;13.80;99.90
6841;DHT22;3458;53.678;14.080;2022-10-31T11:26:29;13.90;99.90
6841;DHT22;3458;53.678;14.080;2022-10-31T11:28:59;13.90;99.90
6841;DHT22;3458;53.678;14.080;2022-10-31T11:31:25;13.90;99.90
6841;DHT22;3458;53.678;14.080;2022-10-31T11:34:05;13.90;99.90
6841;DHT22;3458;53.678;14.080;2022-10-31T11:36:43;13.90;99.90
6841;DHT22;3458;53.678;14.080;2022-10-31T11:39:20;13.80;99.90
6841;DHT22;3458;53.678;14.080;2022-10-31T11:41:47;13.80;99.90
6841;DHT22;3458;53.678;14.080;2022-10-31T11:44:20;13.80;99.90
6841;DHT22;3458;53.678;14.080;2022-10-31T11:46:52;13.80;99.90
6841;DHT22;3458;53.678;14.080;2022-10-31T11:49:39;13.90;99.90
6841;DHT22;3458;53.678;14.080;2022-10-31T11:52:15;13.90;99.90
6841;DHT22;3458;53.678;14.080;2022-10-31T11:54:58;14.00;99.90
6841;DHT22;3458;53.678;14.080;2022-10-31T11:57:30;14.00;99.90
6841;DHT22;3458;53.678;14.080;2022-10-31T11:59:58;14.00;99.90
6841;DHT22;3458;53.678;14.080;2022-10-31T12:02:24;14.00;99.90
6841;DHT22;3458;53.678;14.080;2022-10-31T12:05:02;14.00;99.90
6841;DHT22;3458;53.678;14.080;2022-10-31T12:07:30;14.00;99.90
6841;DHT22;3458;53.678;14.080;2022-10-31T12:09:55;14.00;99.90
6841;DHT22;3458;53.678;14.080;2022-10-31T12:12:37;13.90;99.90
6841;DHT22;3458;53.678;14.080;2022-10-31T12:23:04;13.90;99.90
6841;DHT22;3458;53.678;14.080;2022-10-31T12:26:01;13.90;99.90
6841;DHT22;3458;53.678;14.080;2022-10-31T12:28:56;13.90;99.90
6841;DHT22;3458;53.678;14.080;2022-10-31T12:31:41;13.90;99.90
6841;DHT22;3458;53.678;14.080;2022-10-31T12:34:31;13.90;99.90
6841;DHT22;3458;53.678;14.080;2022-10-31T12:37:13;13.90;99.90
6841;DHT22;3458;53.678;14.080;2022-10-31T12:40:01;13.90;99.90
6841;DHT22;3458;53.678;14.080;2022-10-31T12:45:43;13.90;99.90
6841;DHT22;3458;53.678;14.080;2022-10-31T12:48:29;13.90;99.90
6841;DHT22;3458;53.678;14.080;2022-10-31T12:51:18;13.80;99.90
6841;DHT22;3458;53.678;14.080;2022-10-31T12:56:53;13.80;99.90
6841;DHT22;3458;53.678;14.080;2022-10-31T13:02:25;13.80;99.90
6841;DHT22;3458;53.678;14.080;2022-10-31T13:07:59;13.80;99.90
6841;DHT22;3458;53.678;14.080;2022-10-31T13:10:43;13.80;99.90
6841;DHT22;3458;53.678;14.080;2022-10-31T13:13:26;13.80;99.90
6841;DHT22;3458;53.678;14.080;2022-10-31T13:16:11;13.80;99.90
6841;DHT22;3458;53.678;14.080;2022-10-31T13:19:39;13.80;99.90
6841;DHT22;3458;53.678;14.080;2022-10-31T13:21:37;13.80;99.90
6841;DHT22;3458;53.678;14.080;2022-10-31T13:24:12;13.80;99.90
6841;DHT22;3458;53.678;14.080;2022-10-31T13:26:54;13.80;99.90
6841;DHT22;3458;53.678;14.080;2022-10-31T13:29:33;13.80;99.90
6841;DHT22;3458;53.678;14.080;2022-10-31T13:32:03;13.80;99.90
6841;DHT22;3458;53.678;14.080;2022-10-31T13:34:51;13.80;99.90
6841;DHT22;3458;53.678;14.080;2022-10-31T13:37:30;13.80;99.90
6841;DHT22;3458;53.678;14.080;2022-10-31T13:40:29;13.80;99.90
6841;DHT22;3458;53.678;14.080;2022-10-31T13:43:06;13.80;99.90
6841;DHT22;3458;53.678;14.080;2022-10-31T13:45:35;13.80;99.90
6841;DHT22;3458;53.678;14.080;2022-10-31T13:48:51;13.80;99.90
6841;DHT22;3458;53.678;14.080;2022-10-31T13:51:11;13.80;99.90
6841;DHT22;3458;53.678;14.080;2022-10-31T13:53:43;13.80;99.90
6841;DHT22;3458;53.678;14.080;2022-10-31T13:56:22;13.80;99.90
6841;DHT22;3458;53.678;14.080;2022-10-31T13:59:24;13.80;99.90
6841;DHT22;3458;53.678;14.080;2022-10-31T14:02:02;13.80;99.90
6841;DHT22;3458;53.678;14.080;2022-10-31T14:04:44;13.80;99.90
6841;DHT22;3458;53.678;14.080;2022-10-31T14:07:14;13.80;99.90
6841;DHT22;3458;53.678;14.080;2022-10-31T14:10:00;13.80;99.90
6841;DHT22;3458;53.678;14.080;2022-10-31T14:12:36;13.80;99.90
6841;DHT22;3458;53.678;14.080;2022-10-31T14:15:13;13.80;99.90
6841;DHT22;3458;53.678;14.080;2022-10-31T14:17:55;13.80;99.90
6841;DHT22;3458;53.678;14.080;2022-10-31T14:20:23;13.80;99.90
6841;DHT22;3458;53.678;14.080;2022-10-31T14:22:49;13.70;99.90
6841;DHT22;3458;53.678;14.080;2022-10-31T14:27:55;13.70;99.90
6841;DHT22;3458;53.678;14.080;2022-10-31T14:30:24;13.70;99.90
6841;DHT22;3458;53.678;14.080;2022-10-31T14:33:02;13.80;99.90
6841;DHT22;3458;53.678;14.080;2022-10-31T14:36:11;13.70;99.90
6841;DHT22;3458;53.678;14.080;2022-10-31T14:39:21;13.70;99.90
6841;DHT22;3458;53.678;14.080;2022-10-31T14:42:00;13.70;99.90
6841;DHT22;3458;53.678;14.080;2022-10-31T14:44:47;13.70;99.90
6841;DHT22;3458;53.678;14.080;2022-10-31T14:47:50;13.70;99.90
6841;DHT22;3458;53.678;14.080;2022-10-31T14:50:41;13.70;99.90
6841;DHT22;3458;53.678;14.080;2022-10-31T14:53:13;13.70;99.90
6841;DHT22;3458;53.678;14.080;2022-10-31T14:55:47;13.70;99.90
6841;DHT22;3458;53.678;14.080;2022-10-31T14:58:17;13.70;99.90
6841;DHT22;3458;53.678;14.080;2022-10-31T15:00:44;13.60;99.90
6841;DHT22;3458;53.678;14.080;2022-10-31T15:03:20;13.60;99.90
6841;DHT22;3458;53.678;14.080;2022-10-31T15:05:56;13.60;99.90
6841;DHT22;3458;53.678;14.080;2022-10-31T15:10:57;13.60;99.90
6841;DHT22;3458;53.678;14.080;2022-10-31T15:13:23;13.70;99.90
6841;DHT22;3458;53.678;14.080;2022-10-31T15:15:52;13.60;99.90
6841;DHT22;3458;53.678;14.080;2022-10-31T15:18:25;13.60;99.90
6841;DHT22;3458;53.678;14.080;2022-10-31T15:20:52;13.70;99.90
6841;DHT22;3458;53.678;14.080;2022-10-31T15:23:27;13.60;99.90
6841;DHT22;3458;53.678;14.080;2022-10-31T15:26:04;13.60;99.90
6841;DHT22;3458;53.678;14.080;2022-10-31T15:28:30;13.70;99.90
6841;DHT22;3458;53.678;14.080;2022-10-31T15:30:58;13.60;99.90
6841;DHT22;3458;53.678;14.080;2022-10-31T15:33:29;13.60;99.90
6841;DHT22;3458;53.678;14.080;2022-10-31T15:36:00;13.60;99.90
6841;DHT22;3458;53.678;14.080;2022-10-31T15:38:26;13.60;99.90
6841;DHT22;3458;53.678;14.080;2022-10-31T15:41:04;13.60;99.90
6841;DHT22;3458;53.678;14.080;2022-10-31T15:43:36;13.60;99.90
6841;DHT22;3458;53.678;14.080;2022-10-31T15:46:03;13.60;99.90
6841;DHT22;3458;53.678;14.080;2022-10-31T15:48:29;13.60;99.90
6841;DHT22;3458;53.678;14.080;2022-10-31T15:50:58;13.60;99.90
6841;DHT22;3458;53.678;14.080;2022-10-31T15:53:27;13.60;99.90
6841;DHT22;3458;53.678;14.080;2022-10-31T15:56:00;13.60;99.90
6841;DHT22;3458;53.678;14.080;2022-10-31T15:58:26;13.60;99.90
6841;DHT22;3458;53.678;14.080;2022-10-31T16:01:25;13.60;99.90
6841;DHT22;3458;53.678;14.080;2022-10-31T16:04:02;13.60;99.90
6841;DHT22;3458;53.678;14.080;2022-10-31T16:06:28;13.60;99.90
6841;DHT22;3458;53.678;14.080;2022-10-31T16:08:54;13.60;99.90
6841;DHT22;3458;53.678;14.080;2022-10-31T16:16:43;13.60;99.90
6841;DHT22;3458;53.678;14.080;2022-10-31T16:19:20;13.60;99.90
6841;DHT22;3458;53.678;14.080;2022-10-31T16:21:48;13.60;99.90
6841;DHT22;3458;53.678;14.080;2022-10-31T16:24:19;13.60;99.90
6841;DHT22;3458;53.678;14.080;2022-10-31T16:26:49;13.60;99.90
6841;DHT22;3458;53.678;14.080;2022-10-31T16:31:58;13.60;99.90
6841;DHT22;3458;53.678;14.080;2022-10-31T16:34:23;13.60;99.90
6841;DHT22;3458;53.678;14.080;2022-10-31T16:36:49;13.60;99.90
6841;DHT22;3458;53.678;14.080;2022-10-31T16:39:15;13.60;99.90
6841;DHT22;3458;53.678;14.080;2022-10-31T16:41:45;13.60;99.90
6841;DHT22;3458;53.678;14.080;2022-10-31T16:44:32;13.60;99.90
6841;DHT22;3458;53.678;14.080;2022-10-31T16:47:17;13.60;99.90
6841;DHT22;3458;53.678;14.080;2022-10-31T16:49:47;13.60;99.90
6841;DHT22;3458;53.678;14.080;2022-10-31T16:52:14;13.60;99.90
6841;DHT22;3458;53.678;14.080;2022-10-31T16:54:40;13.60;99.90
6841;DHT22;3458;53.678;14.080;2022-10-31T16:57:06;13.60;99.90
6841;DHT22;3458;53.678;14.080;2022-10-31T16:59:32;13.60;99.90
6841;DHT22;3458;53.678;14.080;2022-10-31T17:01:59;13.60;99.90
6841;DHT22;3458;53.678;14.080;2022-10-31T17:04:25;13.60;99.90
6841;DHT22;3458;53.678;14.080;2022-10-31T17:06:51;13.60;99.90
6841;DHT22;3458;53.678;14.080;2022-10-31T17:09:16;13.60;99.90
6841;DHT22;3458;53.678;14.080;2022-10-31T17:11:50;13.60;99.90
6841;DHT22;3458;53.678;14.080;2022-10-31T17:14:17;13.60;99.90
6841;DHT22;3458;53.678;14.080;2022-10-31T17:16:43;13.60;99.90
6841;DHT22;3458;53.678;14.080;2022-10-31T17:19:12;13.60;99.90